sensor_id;sensor_type;location;lat;lon;timestamp;temperature;humidity
6293;DHT22;3179;54.350;10.102;2022-10-30T00:01:03;16.30;99.90
6293;DHT22;3179;54.350;10.102;2022-10-30T00:03:30;16.30;99.90
6293;DHT22;3179;54.350;10.102;2022-10-30T00:05:57;16.30;99.90
6293;DHT22;3179;54.350;10.102;2022-10-30T00:08:24;16.30;99.90
6293;DHT22;3179;54.350;10.102;2022-10-30T00:10:51;16.20;99.90
6293;DHT22;3179;54.350;10.102;2022-10-30T00:13:18;16.20;99.90
6293;DHT22;3179;54.350;10.102;2022-10-30T00:15:48;16.20;99.90
6293;DHT22;3179;54.350;10.102;2022-10-30T00:18:15;16.20;99.90
6293;DHT22;3179;54.350;10.102;2022-10-30T00:20:41;16.20;99.90
6293;DHT22;3179;54.350;10.102;2022-10-30T00:23:08;16.20;99.90
6293;DHT22;3179;54.350;10.102;2022-10-30T00:25:36;16.20;99.90
6293;DHT22;3179;54.350;10.102;2022-10-30T00:28:03;16.10;99.90
6293;DHT22;3179;54.350;10.102;2022-10-30T00:30:30;16.10;99.90
6293;DHT22;3179;54.350;10.102;2022-10-30T00:32:58;16.10;99.90
6293;DHT22;3179;54.350;10.102;2022-10-30T00:35:25;16.10;99.90
6293;DHT22;3179;54.350;10.102;2022-10-30T00:37:52;16.10;99.90
6293;DHT22;3179;54.350;10.102;2022-10-30T00:40:19;16.10;99.90
6293;DHT22;3179;54.350;10.102;2022-10-30T00:42:45;16.00;99.90
6293;DHT22;3179;54.350;10.102;2022-10-30T00:45:14;16.00;99.90
6293;DHT22;3179;54.350;10.102;2022-10-30T00:47:43;16.00;99.90
6293;DHT22;3179;54.350;10.102;2022-10-30T00:50:14;15.90;99.90
6293;DHT22;3179;54.350;10.102;2022-10-30T00:52:44;16.00;99.90
6293;DHT22;3179;54.350;10.102;2022-10-30T00:55:15;15.90;99.90
6293;DHT22;3179;54.350;10.102;2022-10-30T00:57:43;15.90;99.90
6293;DHT22;3179;54.350;10.102;2022-10-30T01:00:11;15.90;99.90
6293;DHT22;3179;54.350;10.102;2022-10-30T01:02:40;15.90;99.90
6293;DHT22;3179;54.350;10.102;2022-10-30T01:05:08;15.90;99.90
6293;DHT22;3179;54.350;10.102;2022-10-30T01:07:37;15.90;99.90
6293;DHT22;3179;54.350;10.102;2022-10-30T01:10:05;15.80;99.90
6293;DHT22;3179;54.350;10.102;2022-10-30T01:12:32;15.80;99.90
6293;DHT22;3179;54.350;10.102;2022-10-30T01:14:59;15.80;99.90
6293;DHT22;3179;54.350;10.102;2022-10-30T01:20:41;15.80;99.90
6293;DHT22;3179;54.350;10.102;2022-10-30T01:23:24;15.70;99.90
6293;DHT22;3179;54.350;10.102;2022-10-30T01:26:02;15.70;99.90
6293;DHT22;3179;54.350;10.102;2022-10-30T01:28:44;15.70;99.90
6293;DHT22;3179;54.350;10.102;2022-10-30T01:31:25;15.70;99.90
6293;DHT22;3179;54.350;10.102;2022-10-30T01:34:03;15.70;99.90
6293;DHT22;3179;54.350;10.102;2022-10-30T01:36:37;15.70;99.90
6293;DHT22;3179;54.350;10.102;2022-10-30T01:39:10;15.70;99.90
6293;DHT22;3179;54.350;10.102;2022-10-30T01:41:37;15.70;99.90
6293;DHT22;3179;54.350;10.102;2022-10-30T01:44:07;15.70;99.90
6293;DHT22;3179;54.350;10.102;2022-10-30T01:46:43;15.60;99.90
6293;DHT22;3179;54.350;10.102;2022-10-30T01:52:11;15.70;99.90
6293;DHT22;3179;54.350;10.102;2022-10-30T01:54:45;15.60;99.90
6293;DHT22;3179;54.350;10.102;2022-10-30T01:57:22;15.60;99.90
6293;DHT22;3179;54.350;10.102;2022-10-30T01:59:58;15.60;99.90
6293;DHT22;3179;54.350;10.102;2022-10-30T02:02:25;15.60;99.90
6293;DHT22;3179;54.350;10.102;2022-10-30T02:04:52;15.60;99.90
6293;DHT22;3179;54.350;10.102;2022-10-30T02:07:19;15.60;99.90
6293;DHT22;3179;54.350;10.102;2022-10-30T02:09:50;15.60;99.90
6293;DHT22;3179;54.350;10.102;2022-10-30T02:12:17;15.60;99.90
6293;DHT22;3179;54.350;10.102;2022-10-30T02:14:46;15.60;99.90
6293;DHT22;3179;54.350;10.102;2022-10-30T02:17:13;15.60;99.90
6293;DHT22;3179;54.350;10.102;2022-10-30T02:19:40;15.60;99.90
6293;DHT22;3179;54.350;10.102;2022-10-30T02:22:09;15.60;99.90
6293;DHT22;3179;54.350;10.102;2022-10-30T02:24:36;15.60;99.90
6293;DHT22;3179;54.350;10.102;2022-10-30T02:27:03;15.60;99.90
6293;DHT22;3179;54.350;10.102;2022-10-30T02:29:33;15.60;99.90
6293;DHT22;3179;54.350;10.102;2022-10-30T02:31:59;15.60;99.90
6293;DHT22;3179;54.350;10.102;2022-10-30T02:34:26;15.60;99.90
6293;DHT22;3179;54.350;10.102;2022-10-30T02:36:53;15.60;99.90
6293;DHT22;3179;54.350;10.102;2022-10-30T02:39:21;15.70;99.90
6293;DHT22;3179;54.350;10.102;2022-10-30T02:41:48;15.70;99.90
6293;DHT22;3179;54.350;10.102;2022-10-30T02:44:14;15.70;99.90
6293;DHT22;3179;54.350;10.102;2022-10-30T02:46:41;15.70;99.90
6293;DHT22;3179;54.350;10.102;2022-10-30T02:49:08;15.70;99.90
6293;DHT22;3179;54.350;10.102;2022-10-30T02:51:35;15.70;99.90
6293;DHT22;3179;54.350;10.102;2022-10-30T02:54:01;15.70;99.90
6293;DHT22;3179;54.350;10.102;2022-10-30T02:56:30;15.70;99.90
6293;DHT22;3179;54.350;10.102;2022-10-30T02:58:56;15.70;99.90
6293;DHT22;3179;54.350;10.102;2022-10-30T03:01:23;15.60;99.90
6293;DHT22;3179;54.350;10.102;2022-10-30T03:03:50;15.70;99.90
6293;DHT22;3179;54.350;10.102;2022-10-30T03:06:17;15.60;99.90
6293;DHT22;3179;54.350;10.102;2022-10-30T03:08:43;15.70;99.90
6293;DHT22;3179;54.350;10.102;2022-10-30T03:11:12;15.60;99.90
6293;DHT22;3179;54.350;10.102;2022-10-30T03:13:42;15.60;99.90
6293;DHT22;3179;54.350;10.102;2022-10-30T03:16:11;15.60;99.90
6293;DHT22;3179;54.350;10.102;2022-10-30T03:18:38;15.60;99.90
6293;DHT22;3179;54.350;10.102;2022-10-30T03:21:07;15.60;99.90
6293;DHT22;3179;54.350;10.102;2022-10-30T03:23:34;15.60;99.90
6293;DHT22;3179;54.350;10.102;2022-10-30T03:26:02;15.60;99.90
6293;DHT22;3179;54.350;10.102;2022-10-30T03:28:30;15.60;99.90
6293;DHT22;3179;54.350;10.102;2022-10-30T03:31:00;15.60;99.90
6293;DHT22;3179;54.350;10.102;2022-10-30T03:33:27;15.60;99.90
6293;DHT22;3179;54.350;10.102;2022-10-30T03:35:54;15.60;99.90
6293;DHT22;3179;54.350;10.102;2022-10-30T03:38:24;15.50;99.90
6293;DHT22;3179;54.350;10.102;2022-10-30T03:40:52;15.50;99.90
6293;DHT22;3179;54.350;10.102;2022-10-30T03:43:19;15.50;99.90
6293;DHT22;3179;54.350;10.102;2022-10-30T03:45:46;15.50;99.90
6293;DHT22;3179;54.350;10.102;2022-10-30T03:48:15;15.50;99.90
6293;DHT22;3179;54.350;10.102;2022-10-30T03:50:42;15.50;99.90
6293;DHT22;3179;54.350;10.102;2022-10-30T03:53:09;15.50;99.90
6293;DHT22;3179;54.350;10.102;2022-10-30T03:55:35;15.50;99.90
6293;DHT22;3179;54.350;10.102;2022-10-30T03:58:02;15.50;99.90
6293;DHT22;3179;54.350;10.102;2022-10-30T04:00:29;15.50;99.90
6293;DHT22;3179;54.350;10.102;2022-10-30T04:02:56;15.40;99.90
6293;DHT22;3179;54.350;10.102;2022-10-30T04:05:25;15.40;99.90
6293;DHT22;3179;54.350;10.102;2022-10-30T04:07:55;15.50;99.90
6293;DHT22;3179;54.350;10.102;2022-10-30T04:10:22;15.50;99.90
6293;DHT22;3179;54.350;10.102;2022-10-30T04:12:49;15.40;99.90
6293;DHT22;3179;54.350;10.102;2022-10-30T04:15:17;15.40;99.90
6293;DHT22;3179;54.350;10.102;2022-10-30T04:17:48;15.40;99.90
6293;DHT22;3179;54.350;10.102;2022-10-30T04:20:16;15.40;99.90
6293;DHT22;3179;54.350;10.102;2022-10-30T04:22:44;15.40;99.90
6293;DHT22;3179;54.350;10.102;2022-10-30T04:25:11;15.40;99.90
6293;DHT22;3179;54.350;10.102;2022-10-30T04:27:39;15.40;99.90
6293;DHT22;3179;54.350;10.102;2022-10-30T04:30:08;15.40;99.90
6293;DHT22;3179;54.350;10.102;2022-10-30T04:32:35;15.40;99.90
6293;DHT22;3179;54.350;10.102;2022-10-30T04:35:02;15.40;99.90
6293;DHT22;3179;54.350;10.102;2022-10-30T04:37:29;15.40;99.90
6293;DHT22;3179;54.350;10.102;2022-10-30T04:39:57;15.40;99.90
6293;DHT22;3179;54.350;10.102;2022-10-30T04:42:24;15.40;99.90
6293;DHT22;3179;54.350;10.102;2022-10-30T04:44:50;15.40;99.90
6293;DHT22;3179;54.350;10.102;2022-10-30T04:47:17;15.40;99.90
6293;DHT22;3179;54.350;10.102;2022-10-30T04:49:44;15.50;99.90
6293;DHT22;3179;54.350;10.102;2022-10-30T04:52:11;15.50;99.90
6293;DHT22;3179;54.350;10.102;2022-10-30T04:54:37;15.50;99.90
6293;DHT22;3179;54.350;10.102;2022-10-30T04:57:05;15.50;99.90
6293;DHT22;3179;54.350;10.102;2022-10-30T04:59:33;15.50;99.90
6293;DHT22;3179;54.350;10.102;2022-10-30T05:02:00;15.50;99.90
6293;DHT22;3179;54.350;10.102;2022-10-30T05:04:27;15.50;99.90
6293;DHT22;3179;54.350;10.102;2022-10-30T05:06:53;15.50;99.90
6293;DHT22;3179;54.350;10.102;2022-10-30T05:09:20;15.50;99.90
6293;DHT22;3179;54.350;10.102;2022-10-30T05:11:47;15.50;99.90
6293;DHT22;3179;54.350;10.102;2022-10-30T05:14:15;15.50;99.90
6293;DHT22;3179;54.350;10.102;2022-10-30T05:16:42;15.50;99.90
6293;DHT22;3179;54.350;10.102;2022-10-30T05:19:08;15.50;99.90
6293;DHT22;3179;54.350;10.102;2022-10-30T05:21:35;15.50;99.90
6293;DHT22;3179;54.350;10.102;2022-10-30T05:24:02;15.50;99.90
6293;DHT22;3179;54.350;10.102;2022-10-30T05:26:29;15.50;99.90
6293;DHT22;3179;54.350;10.102;2022-10-30T05:28:55;15.50;99.90
6293;DHT22;3179;54.350;10.102;2022-10-30T05:31:24;15.50;99.90
6293;DHT22;3179;54.350;10.102;2022-10-30T05:33:50;15.50;99.90
6293;DHT22;3179;54.350;10.102;2022-10-30T05:36:17;15.50;99.90
6293;DHT22;3179;54.350;10.102;2022-10-30T05:38:44;15.40;99.90
6293;DHT22;3179;54.350;10.102;2022-10-30T05:41:11;15.40;99.90
6293;DHT22;3179;54.350;10.102;2022-10-30T05:43:38;15.50;99.90
6293;DHT22;3179;54.350;10.102;2022-10-30T05:46:05;15.40;99.90
6293;DHT22;3179;54.350;10.102;2022-10-30T05:48:33;15.40;99.90
6293;DHT22;3179;54.350;10.102;2022-10-30T05:51:00;15.40;99.90
6293;DHT22;3179;54.350;10.102;2022-10-30T05:53:26;15.40;99.90
6293;DHT22;3179;54.350;10.102;2022-10-30T05:55:55;15.40;99.90
6293;DHT22;3179;54.350;10.102;2022-10-30T05:58:22;15.40;99.90
6293;DHT22;3179;54.350;10.102;2022-10-30T06:00:49;15.40;99.90
6293;DHT22;3179;54.350;10.102;2022-10-30T06:03:16;15.40;99.90
6293;DHT22;3179;54.350;10.102;2022-10-30T06:05:45;15.40;99.90
6293;DHT22;3179;54.350;10.102;2022-10-30T06:08:12;15.40;99.90
6293;DHT22;3179;54.350;10.102;2022-10-30T06:10:40;15.40;99.90
6293;DHT22;3179;54.350;10.102;2022-10-30T06:13:09;15.40;99.90
6293;DHT22;3179;54.350;10.102;2022-10-30T06:15:35;15.40;99.90
6293;DHT22;3179;54.350;10.102;2022-10-30T06:18:02;15.30;99.90
6293;DHT22;3179;54.350;10.102;2022-10-30T06:20:29;15.30;99.90
6293;DHT22;3179;54.350;10.102;2022-10-30T06:22:59;15.40;99.90
6293;DHT22;3179;54.350;10.102;2022-10-30T06:25:27;15.40;99.90
6293;DHT22;3179;54.350;10.102;2022-10-30T06:27:54;15.30;99.90
6293;DHT22;3179;54.350;10.102;2022-10-30T06:30:20;15.30;99.90
6293;DHT22;3179;54.350;10.102;2022-10-30T06:32:47;15.30;99.90
6293;DHT22;3179;54.350;10.102;2022-10-30T06:35:14;15.30;99.90
6293;DHT22;3179;54.350;10.102;2022-10-30T06:37:44;15.30;99.90
6293;DHT22;3179;54.350;10.102;2022-10-30T06:40:13;15.30;99.90
6293;DHT22;3179;54.350;10.102;2022-10-30T06:42:43;15.30;99.90
6293;DHT22;3179;54.350;10.102;2022-10-30T06:45:11;15.30;99.90
6293;DHT22;3179;54.350;10.102;2022-10-30T06:47:38;15.30;99.90
6293;DHT22;3179;54.350;10.102;2022-10-30T06:50:07;15.30;99.90
6293;DHT22;3179;54.350;10.102;2022-10-30T06:52:34;15.30;99.90
6293;DHT22;3179;54.350;10.102;2022-10-30T06:55:01;15.30;99.90
6293;DHT22;3179;54.350;10.102;2022-10-30T06:57:29;15.40;99.90
6293;DHT22;3179;54.350;10.102;2022-10-30T06:59:56;15.30;99.90
6293;DHT22;3179;54.350;10.102;2022-10-30T07:02:22;15.40;99.90
6293;DHT22;3179;54.350;10.102;2022-10-30T07:04:49;15.30;99.90
6293;DHT22;3179;54.350;10.102;2022-10-30T07:07:16;15.30;99.90
6293;DHT22;3179;54.350;10.102;2022-10-30T07:09:43;15.40;99.90
6293;DHT22;3179;54.350;10.102;2022-10-30T07:12:11;15.40;99.90
6293;DHT22;3179;54.350;10.102;2022-10-30T07:14:39;15.40;99.90
6293;DHT22;3179;54.350;10.102;2022-10-30T07:17:06;15.40;99.90
6293;DHT22;3179;54.350;10.102;2022-10-30T07:19:33;15.40;99.90
6293;DHT22;3179;54.350;10.102;2022-10-30T07:21:59;15.40;99.90
6293;DHT22;3179;54.350;10.102;2022-10-30T07:24:26;15.40;99.90
6293;DHT22;3179;54.350;10.102;2022-10-30T07:26:54;15.40;99.90
6293;DHT22;3179;54.350;10.102;2022-10-30T07:29:20;15.40;99.90
6293;DHT22;3179;54.350;10.102;2022-10-30T07:31:49;15.40;99.90
6293;DHT22;3179;54.350;10.102;2022-10-30T07:34:15;15.50;99.90
6293;DHT22;3179;54.350;10.102;2022-10-30T07:36:42;15.50;99.90
6293;DHT22;3179;54.350;10.102;2022-10-30T07:39:09;15.60;99.90
6293;DHT22;3179;54.350;10.102;2022-10-30T07:41:35;15.50;99.90
6293;DHT22;3179;54.350;10.102;2022-10-30T07:44:02;15.60;99.90
6293;DHT22;3179;54.350;10.102;2022-10-30T07:46:29;15.60;99.90
6293;DHT22;3179;54.350;10.102;2022-10-30T07:48:57;15.60;99.90
6293;DHT22;3179;54.350;10.102;2022-10-30T07:51:24;15.60;99.90
6293;DHT22;3179;54.350;10.102;2022-10-30T07:53:50;15.60;99.90
6293;DHT22;3179;54.350;10.102;2022-10-30T07:56:17;15.60;99.90
6293;DHT22;3179;54.350;10.102;2022-10-30T07:58:44;15.70;99.90
6293;DHT22;3179;54.350;10.102;2022-10-30T08:01:11;15.60;99.90
6293;DHT22;3179;54.350;10.102;2022-10-30T08:03:37;15.70;99.90
6293;DHT22;3179;54.350;10.102;2022-10-30T08:06:06;15.70;99.90
6293;DHT22;3179;54.350;10.102;2022-10-30T08:08:32;15.70;99.90
6293;DHT22;3179;54.350;10.102;2022-10-30T08:10:59;15.70;99.90
6293;DHT22;3179;54.350;10.102;2022-10-30T08:13:26;15.80;99.90
6293;DHT22;3179;54.350;10.102;2022-10-30T08:15:53;15.80;99.90
6293;DHT22;3179;54.350;10.102;2022-10-30T08:18:19;15.80;99.90
6293;DHT22;3179;54.350;10.102;2022-10-30T08:20:48;15.80;99.90
6293;DHT22;3179;54.350;10.102;2022-10-30T08:23:17;15.80;99.90
6293;DHT22;3179;54.350;10.102;2022-10-30T08:25:44;15.90;99.90
6293;DHT22;3179;54.350;10.102;2022-10-30T08:28:12;15.90;99.90
6293;DHT22;3179;54.350;10.102;2022-10-30T08:30:39;15.90;99.90
6293;DHT22;3179;54.350;10.102;2022-10-30T08:33:08;15.90;99.90
6293;DHT22;3179;54.350;10.102;2022-10-30T08:35:35;15.90;99.90
6293;DHT22;3179;54.350;10.102;2022-10-30T08:38:02;16.00;99.90
6293;DHT22;3179;54.350;10.102;2022-10-30T08:40:30;16.00;99.90
6293;DHT22;3179;54.350;10.102;2022-10-30T08:42:57;16.00;99.90
6293;DHT22;3179;54.350;10.102;2022-10-30T08:45:24;16.00;99.90
6293;DHT22;3179;54.350;10.102;2022-10-30T08:47:57;16.00;99.90
6293;DHT22;3179;54.350;10.102;2022-10-30T08:50:24;16.00;99.90
6293;DHT22;3179;54.350;10.102;2022-10-30T08:52:51;16.10;99.90
6293;DHT22;3179;54.350;10.102;2022-10-30T08:55:18;16.10;99.90
6293;DHT22;3179;54.350;10.102;2022-10-30T08:57:46;16.10;99.90
6293;DHT22;3179;54.350;10.102;2022-10-30T09:00:14;16.10;99.90
6293;DHT22;3179;54.350;10.102;2022-10-30T09:02:40;16.10;99.90
6293;DHT22;3179;54.350;10.102;2022-10-30T09:05:08;16.10;99.90
6293;DHT22;3179;54.350;10.102;2022-10-30T09:07:35;16.10;99.90
6293;DHT22;3179;54.350;10.102;2022-10-30T09:10:02;16.10;99.90
6293;DHT22;3179;54.350;10.102;2022-10-30T09:12:29;16.10;99.90
6293;DHT22;3179;54.350;10.102;2022-10-30T09:14:57;16.20;99.90
6293;DHT22;3179;54.350;10.102;2022-10-30T09:17:24;16.20;99.90
6293;DHT22;3179;54.350;10.102;2022-10-30T09:19:51;16.30;99.90
6293;DHT22;3179;54.350;10.102;2022-10-30T09:22:18;16.40;99.90
6293;DHT22;3179;54.350;10.102;2022-10-30T09:24:45;16.40;99.90
6293;DHT22;3179;54.350;10.102;2022-10-30T09:27:12;16.50;99.90
6293;DHT22;3179;54.350;10.102;2022-10-30T09:29:39;16.50;99.90
6293;DHT22;3179;54.350;10.102;2022-10-30T09:32:08;16.60;99.90
6293;DHT22;3179;54.350;10.102;2022-10-30T09:34:36;16.60;99.90
6293;DHT22;3179;54.350;10.102;2022-10-30T09:37:04;16.70;99.90
6293;DHT22;3179;54.350;10.102;2022-10-30T09:39:31;16.70;99.90
6293;DHT22;3179;54.350;10.102;2022-10-30T09:42:22;16.80;99.90
6293;DHT22;3179;54.350;10.102;2022-10-30T09:45:01;16.90;99.90
6293;DHT22;3179;54.350;10.102;2022-10-30T09:47:36;16.90;99.90
6293;DHT22;3179;54.350;10.102;2022-10-30T09:50:17;17.00;99.90
6293;DHT22;3179;54.350;10.102;2022-10-30T09:52:58;17.10;99.90
6293;DHT22;3179;54.350;10.102;2022-10-30T09:55:33;17.20;99.90
6293;DHT22;3179;54.350;10.102;2022-10-30T09:58:13;17.20;99.90
6293;DHT22;3179;54.350;10.102;2022-10-30T10:00:47;17.30;99.90
6293;DHT22;3179;54.350;10.102;2022-10-30T10:03:30;17.30;99.90
6293;DHT22;3179;54.350;10.102;2022-10-30T10:06:00;17.40;99.90
6293;DHT22;3179;54.350;10.102;2022-10-30T10:08:31;17.40;99.90
6293;DHT22;3179;54.350;10.102;2022-10-30T10:11:03;17.50;99.90
6293;DHT22;3179;54.350;10.102;2022-10-30T10:13:36;17.50;99.90
6293;DHT22;3179;54.350;10.102;2022-10-30T10:16:11;17.50;99.90
6293;DHT22;3179;54.350;10.102;2022-10-30T10:18:44;17.60;99.90
6293;DHT22;3179;54.350;10.102;2022-10-30T10:21:17;17.70;99.90
6293;DHT22;3179;54.350;10.102;2022-10-30T10:23:48;17.70;99.90
6293;DHT22;3179;54.350;10.102;2022-10-30T10:26:26;17.70;99.90
6293;DHT22;3179;54.350;10.102;2022-10-30T10:29:22;17.80;99.90
6293;DHT22;3179;54.350;10.102;2022-10-30T10:31:55;17.90;99.90
6293;DHT22;3179;54.350;10.102;2022-10-30T10:34:36;17.90;99.90
6293;DHT22;3179;54.350;10.102;2022-10-30T10:37:11;17.90;99.90
6293;DHT22;3179;54.350;10.102;2022-10-30T10:40:02;17.90;99.90
6293;DHT22;3179;54.350;10.102;2022-10-30T10:42:41;18.00;99.90
6293;DHT22;3179;54.350;10.102;2022-10-30T10:45:20;18.00;99.90
6293;DHT22;3179;54.350;10.102;2022-10-30T10:48:01;18.10;99.90
6293;DHT22;3179;54.350;10.102;2022-10-30T10:50:38;18.10;99.90
6293;DHT22;3179;54.350;10.102;2022-10-30T10:53:15;18.20;99.90
6293;DHT22;3179;54.350;10.102;2022-10-30T10:55:47;18.20;99.90
6293;DHT22;3179;54.350;10.102;2022-10-30T10:58:21;18.30;99.90
6293;DHT22;3179;54.350;10.102;2022-10-30T11:00:49;18.30;99.90
6293;DHT22;3179;54.350;10.102;2022-10-30T11:03:19;18.30;99.90
6293;DHT22;3179;54.350;10.102;2022-10-30T11:05:50;18.40;99.90
6293;DHT22;3179;54.350;10.102;2022-10-30T11:08:20;18.40;99.90
6293;DHT22;3179;54.350;10.102;2022-10-30T11:10:54;18.50;99.90
6293;DHT22;3179;54.350;10.102;2022-10-30T11:13:22;18.50;99.90
6293;DHT22;3179;54.350;10.102;2022-10-30T11:15:54;18.60;99.90
6293;DHT22;3179;54.350;10.102;2022-10-30T11:18:24;18.70;99.90
6293;DHT22;3179;54.350;10.102;2022-10-30T11:20:56;18.70;99.90
6293;DHT22;3179;54.350;10.102;2022-10-30T11:23:37;18.70;99.90
6293;DHT22;3179;54.350;10.102;2022-10-30T11:28:49;18.90;99.90
6293;DHT22;3179;54.350;10.102;2022-10-30T11:31:18;18.90;99.90
6293;DHT22;3179;54.350;10.102;2022-10-30T11:33:45;18.90;99.90
6293;DHT22;3179;54.350;10.102;2022-10-30T11:36:16;19.00;99.90
6293;DHT22;3179;54.350;10.102;2022-10-30T11:38:43;19.00;99.90
6293;DHT22;3179;54.350;10.102;2022-10-30T11:41:10;19.00;99.90
6293;DHT22;3179;54.350;10.102;2022-10-30T11:43:39;19.00;99.90
6293;DHT22;3179;54.350;10.102;2022-10-30T11:46:07;19.00;99.90
6293;DHT22;3179;54.350;10.102;2022-10-30T11:48:37;19.10;99.90
6293;DHT22;3179;54.350;10.102;2022-10-30T11:51:05;19.10;99.90
6293;DHT22;3179;54.350;10.102;2022-10-30T11:53:35;19.20;99.90
6293;DHT22;3179;54.350;10.102;2022-10-30T11:56:13;19.20;99.90
6293;DHT22;3179;54.350;10.102;2022-10-30T11:58:43;19.30;99.90
6293;DHT22;3179;54.350;10.102;2022-10-30T12:01:18;19.30;99.90
6293;DHT22;3179;54.350;10.102;2022-10-30T12:03:46;19.30;99.90
6293;DHT22;3179;54.350;10.102;2022-10-30T12:06:19;19.40;99.90
6293;DHT22;3179;54.350;10.102;2022-10-30T12:09:02;19.40;99.90
6293;DHT22;3179;54.350;10.102;2022-10-30T12:11:30;19.40;99.90
6293;DHT22;3179;54.350;10.102;2022-10-30T12:13:58;19.40;99.90
6293;DHT22;3179;54.350;10.102;2022-10-30T12:16:26;19.40;99.90
6293;DHT22;3179;54.350;10.102;2022-10-30T12:18:58;19.40;99.90
6293;DHT22;3179;54.350;10.102;2022-10-30T12:21:26;19.40;99.90
6293;DHT22;3179;54.350;10.102;2022-10-30T12:23:56;19.50;99.90
6293;DHT22;3179;54.350;10.102;2022-10-30T12:26:27;19.50;99.90
6293;DHT22;3179;54.350;10.102;2022-10-30T12:29:00;19.50;99.90
6293;DHT22;3179;54.350;10.102;2022-10-30T12:31:34;19.50;99.90
6293;DHT22;3179;54.350;10.102;2022-10-30T12:34:14;19.50;99.90
6293;DHT22;3179;54.350;10.102;2022-10-30T12:36:47;19.60;99.90
6293;DHT22;3179;54.350;10.102;2022-10-30T12:39:20;19.60;99.90
6293;DHT22;3179;54.350;10.102;2022-10-30T12:41:55;19.60;99.90
6293;DHT22;3179;54.350;10.102;2022-10-30T12:44:26;19.60;99.90
6293;DHT22;3179;54.350;10.102;2022-10-30T12:46:58;19.70;99.90
6293;DHT22;3179;54.350;10.102;2022-10-30T12:49:33;19.60;99.90
6293;DHT22;3179;54.350;10.102;2022-10-30T12:52:07;19.60;99.90
6293;DHT22;3179;54.350;10.102;2022-10-30T12:54:40;19.60;99.90
6293;DHT22;3179;54.350;10.102;2022-10-30T12:57:12;19.60;99.90
6293;DHT22;3179;54.350;10.102;2022-10-30T12:59:48;19.60;99.90
6293;DHT22;3179;54.350;10.102;2022-10-30T13:02:25;19.60;99.90
6293;DHT22;3179;54.350;10.102;2022-10-30T13:04:58;19.60;99.90
6293;DHT22;3179;54.350;10.102;2022-10-30T13:07:32;19.50;99.90
6293;DHT22;3179;54.350;10.102;2022-10-30T13:10:11;19.50;99.90
6293;DHT22;3179;54.350;10.102;2022-10-30T13:12:43;19.50;99.90
6293;DHT22;3179;54.350;10.102;2022-10-30T13:15:19;19.50;99.90
6293;DHT22;3179;54.350;10.102;2022-10-30T13:17:48;19.50;99.90
6293;DHT22;3179;54.350;10.102;2022-10-30T13:20:15;19.40;99.90
6293;DHT22;3179;54.350;10.102;2022-10-30T13:22:48;19.40;99.90
6293;DHT22;3179;54.350;10.102;2022-10-30T13:25:20;19.40;99.90
6293;DHT22;3179;54.350;10.102;2022-10-30T13:27:52;19.50;99.90
6293;DHT22;3179;54.350;10.102;2022-10-30T13:30:22;19.40;99.90
6293;DHT22;3179;54.350;10.102;2022-10-30T13:33:01;19.40;99.90
6293;DHT22;3179;54.350;10.102;2022-10-30T13:35:34;19.40;99.90
6293;DHT22;3179;54.350;10.102;2022-10-30T13:38:21;19.40;99.90
6293;DHT22;3179;54.350;10.102;2022-10-30T13:40:54;19.40;99.90
6293;DHT22;3179;54.350;10.102;2022-10-30T13:43:30;19.40;99.90
6293;DHT22;3179;54.350;10.102;2022-10-30T13:46:23;19.40;99.90
6293;DHT22;3179;54.350;10.102;2022-10-30T13:49:03;19.40;99.90
6293;DHT22;3179;54.350;10.102;2022-10-30T13:51:38;19.40;99.90
6293;DHT22;3179;54.350;10.102;2022-10-30T13:54:15;19.40;99.90
6293;DHT22;3179;54.350;10.102;2022-10-30T13:56:44;19.40;99.90
6293;DHT22;3179;54.350;10.102;2022-10-30T13:59:23;19.40;99.90
6293;DHT22;3179;54.350;10.102;2022-10-30T14:01:55;19.40;99.90
6293;DHT22;3179;54.350;10.102;2022-10-30T14:04:29;19.40;99.90
6293;DHT22;3179;54.350;10.102;2022-10-30T14:07:14;19.40;99.90
6293;DHT22;3179;54.350;10.102;2022-10-30T14:09:50;19.40;99.90
6293;DHT22;3179;54.350;10.102;2022-10-30T14:12:46;19.30;99.90
6293;DHT22;3179;54.350;10.102;2022-10-30T14:15:24;19.30;99.90
6293;DHT22;3179;54.350;10.102;2022-10-30T14:18:26;19.30;99.90
6293;DHT22;3179;54.350;10.102;2022-10-30T14:20:54;19.20;99.90
6293;DHT22;3179;54.350;10.102;2022-10-30T14:23:23;19.20;99.90
6293;DHT22;3179;54.350;10.102;2022-10-30T14:26:12;19.20;99.90
6293;DHT22;3179;54.350;10.102;2022-10-30T14:28:41;19.20;99.90
6293;DHT22;3179;54.350;10.102;2022-10-30T14:31:11;19.20;99.90
6293;DHT22;3179;54.350;10.102;2022-10-30T14:33:44;19.20;99.90
6293;DHT22;3179;54.350;10.102;2022-10-30T14:36:22;19.20;99.90
6293;DHT22;3179;54.350;10.102;2022-10-30T14:38:59;19.20;99.90
6293;DHT22;3179;54.350;10.102;2022-10-30T14:41:32;19.10;99.90
6293;DHT22;3179;54.350;10.102;2022-10-30T14:47:02;19.10;99.90
6293;DHT22;3179;54.350;10.102;2022-10-30T14:49:45;19.00;99.90
6293;DHT22;3179;54.350;10.102;2022-10-30T14:52:19;19.00;99.90
6293;DHT22;3179;54.350;10.102;2022-10-30T14:54:52;19.00;99.90
6293;DHT22;3179;54.350;10.102;2022-10-30T14:57:22;19.00;99.90
6293;DHT22;3179;54.350;10.102;2022-10-30T15:00:29;18.90;99.90
6293;DHT22;3179;54.350;10.102;2022-10-30T15:03:06;18.90;99.90
6293;DHT22;3179;54.350;10.102;2022-10-30T15:05:42;18.80;99.90
6293;DHT22;3179;54.350;10.102;2022-10-30T15:08:32;18.80;99.90
6293;DHT22;3179;54.350;10.102;2022-10-30T15:11:15;18.80;99.90
6293;DHT22;3179;54.350;10.102;2022-10-30T15:13:46;18.80;99.90
6293;DHT22;3179;54.350;10.102;2022-10-30T15:16:16;18.70;99.90
6293;DHT22;3179;54.350;10.102;2022-10-30T15:18:45;18.70;99.90
6293;DHT22;3179;54.350;10.102;2022-10-30T15:21:18;18.70;99.90
6293;DHT22;3179;54.350;10.102;2022-10-30T15:23:48;18.60;99.90
6293;DHT22;3179;54.350;10.102;2022-10-30T15:26:19;18.60;99.90
6293;DHT22;3179;54.350;10.102;2022-10-30T15:28:49;18.60;99.90
6293;DHT22;3179;54.350;10.102;2022-10-30T15:31:21;18.50;99.90
6293;DHT22;3179;54.350;10.102;2022-10-30T15:33:50;18.50;99.90
6293;DHT22;3179;54.350;10.102;2022-10-30T15:36:20;18.50;99.90
6293;DHT22;3179;54.350;10.102;2022-10-30T15:39:06;18.40;99.90
6293;DHT22;3179;54.350;10.102;2022-10-30T15:41:45;18.40;99.90
6293;DHT22;3179;54.350;10.102;2022-10-30T15:44:15;18.40;99.90
6293;DHT22;3179;54.350;10.102;2022-10-30T15:46:44;18.30;99.90
6293;DHT22;3179;54.350;10.102;2022-10-30T15:49:14;18.30;99.90
6293;DHT22;3179;54.350;10.102;2022-10-30T15:51:45;18.30;99.90
6293;DHT22;3179;54.350;10.102;2022-10-30T15:54:16;18.20;99.90
6293;DHT22;3179;54.350;10.102;2022-10-30T15:56:48;18.20;99.90
6293;DHT22;3179;54.350;10.102;2022-10-30T15:59:18;18.20;99.90
6293;DHT22;3179;54.350;10.102;2022-10-30T16:01:47;18.10;99.90
6293;DHT22;3179;54.350;10.102;2022-10-30T16:04:15;18.10;99.90
6293;DHT22;3179;54.350;10.102;2022-10-30T16:06:50;18.10;99.90
6293;DHT22;3179;54.350;10.102;2022-10-30T16:09:17;18.00;99.90
6293;DHT22;3179;54.350;10.102;2022-10-30T16:11:47;18.00;99.90
6293;DHT22;3179;54.350;10.102;2022-10-30T16:14:16;18.00;99.90
6293;DHT22;3179;54.350;10.102;2022-10-30T16:16:44;18.00;99.90